Weaver, South Dakota
Current Conditions -  °F | °C
As of 8:53 AM on Sunday 21 Dec 2014 (Local Time) from KICR Reporting Station
Clear Clear  
Wind Chill: 24°   Ceiling: Unl
Heat Index: 35°   Visibility: 10mi
Dew Point: 26°   Wind: 18mph
Humidity: 70%   Direction: 200°SSW
Pressure: 29.61"   Gusts: NA
Location:  43.2923°N, 99.8934°W
Report Text: KICR 211453Z AUTO 20016KT 10SM CLR 02/M03 A2961 RMK AO2 SLP044 T00171033 58025
Loading
Personal Weather Stations






























Interactive Weather Map New forecast layout! Learn more

10-Day Weather Forecast

Advertisements
Track Severe Weather on mobile